Time;durP1;ratioP1;P1;durP2;ratioP2;P2;SDS_P1;SDS_P2;PMS_P1;PMS_P2;Temp;Humidity;BMP_temperature;BMP_pressure;BME280_temperature;BME280_humidity;BME280_pressure;Samples;Min_cycle;Max_cycle;Signal;HPM_P1;HPM_P2
2023/01/24 00:00:31;;;;;;;24.77;10.20;;;;;;;-145.69;100.00;52699.88;5095704;28;20292;-79
2023/01/24 00:02:57;;;;;;;23.20;9.47;;;;;;;-145.69;100.00;52713.72;5115005;28;20225;-79
2023/01/24 00:05:24;;;;;;;25.70;9.53;;;;;;;-145.69;100.00;52695.91;5115438;28;20201;-79
2023/01/24 00:07:50;;;;;;;24.80;11.00;;;;;;;-145.69;100.00;52687.97;5114924;28;20660;-79
2023/01/24 00:10:17;;;;;;;23.40;9.50;;;;;;;-145.69;100.00;52686.00;5115134;28;20194;-79
2023/01/24 00:12:45;;;;;;;21.03;9.53;;;;;;;-145.69;100.00;52721.66;5114723;28;20206;-79
2023/01/24 00:15:13;;;;;;;24.20;9.57;;;;;;;-145.69;100.00;52693.94;5114991;28;20200;-78
2023/01/24 00:17:39;;;;;;;19.83;9.00;;;;;;;-145.69;100.00;52684.03;5114832;28;20212;-79
2023/01/24 00:20:07;;;;;;;22.63;9.40;;;;;;;-145.69;100.00;52709.78;5114378;28;20200;-79
2023/01/24 00:22:33;;;;;;;17.93;8.37;;;;;;;-145.69;100.00;52678.09;5114939;28;20228;-79
2023/01/24 00:25:00;;;;;;;21.90;8.37;;;;;;;-145.69;100.00;52697.88;5115054;28;20247;-79
2023/01/24 00:27:26;;;;;;;20.00;8.67;;;;;;;-145.69;100.00;52695.91;5114990;28;20208;-79
2023/01/24 00:29:54;;;;;;;18.93;8.23;;;;;;;-145.69;100.00;52709.78;5114877;28;20194;-79
2023/01/24 00:32:21;;;;;;;24.90;9.07;;;;;;;-145.69;100.00;52668.19;5114874;28;20208;-78
2023/01/24 00:34:47;;;;;;;19.77;9.07;;;;;;;-145.69;100.00;52678.09;5114304;28;20659;-79
2023/01/24 00:37:14;;;;;;;20.33;8.77;;;;;;;-145.69;100.00;52678.09;5115230;28;20204;-79
2023/01/24 00:39:40;;;;;;;23.52;9.63;;;;;;;-145.69;100.00;52719.66;5115586;28;20402;-79
2023/01/24 00:42:07;;;;;;;21.67;10.00;;;;;;;-145.69;100.00;52709.78;5115431;28;20193;-79
2023/01/24 00:44:33;;;;;;;21.17;9.00;;;;;;;-145.69;100.00;52697.88;5114927;28;20237;-79
2023/01/24 00:47:04;;;;;;;25.83;9.53;;;;;;;-145.69;100.00;52703.81;5114881;28;20194;-79
2023/01/24 00:49:30;;;;;;;20.57;8.77;;;;;;;-145.69;100.00;52682.03;5114631;28;20201;-79
2023/01/24 00:51:57;;;;;;;21.33;8.57;;;;;;;-145.69;100.00;52699.88;5113883;28;20200;-78
2023/01/24 00:54:24;;;;;;;20.27;8.57;;;;;;;-145.69;100.00;52674.13;5114460;28;20224;-79
2023/01/24 00:56:50;;;;;;;17.77;8.53;;;;;;;-145.69;100.00;52674.13;5114257;28;20205;-78
2023/01/24 00:59:17;;;;;;;22.17;8.97;;;;;;;-145.69;100.00;52678.09;5114199;28;20221;-79
2023/01/24 01:01:44;;;;;;;23.70;9.33;;;;;;;-145.69;100.00;52701.84;5114377;28;20198;-79
2023/01/24 01:04:16;;;;;;;19.10;8.77;;;;;;;-145.69;100.00;52687.97;5114093;28;20225;-79
2023/01/24 01:06:46;;;;;;;17.30;8.23;;;;;;;-145.69;100.00;52684.03;5114295;28;20209;-78
2023/01/24 01:09:13;;;;;;;23.00;9.20;;;;;;;-145.69;100.00;52666.19;5114006;28;20670;-78
2023/01/24 01:11:41;;;;;;;20.17;9.07;;;;;;;-145.69;100.00;52705.81;5114200;28;20669;-78
2023/01/24 01:14:08;;;;;;;21.97;8.27;;;;;;;-145.69;100.00;52701.84;5112407;28;20205;-79
2023/01/24 01:16:37;;;;;;;18.40;8.00;;;;;;;-145.69;100.00;52687.97;5093701;28;20198;-79
2023/01/24 01:19:05;;;;;;;21.23;8.90;;;;;;;-145.69;100.00;52652.34;5093397;28;20204;-78
2023/01/24 01:21:33;;;;;;;21.20;8.67;;;;;;;-145.69;100.00;52691.94;5098418;28;20268;-78
2023/01/24 01:23:59;;;;;;;20.60;8.20;;;;;;;-145.69;100.00;52707.78;5112567;28;20220;-78
2023/01/24 01:26:26;;;;;;;18.00;8.50;;;;;;;-145.69;100.00;52697.88;5113954;28;20202;-79
2023/01/24 01:28:52;;;;;;;17.43;7.53;;;;;;;-145.69;100.00;52670.16;5113968;28;20683;-78
2023/01/24 01:31:19;;;;;;;18.73;8.00;;;;;;;-145.69;100.00;52711.75;5113817;28;20208;-78
2023/01/24 01:33:46;;;;;;;15.73;7.90;;;;;;;-145.69;100.00;52693.94;5113607;28;20190;-78
2023/01/24 01:36:13;;;;;;;16.40;7.50;;;;;;;-145.69;100.00;52656.28;5113807;28;20582;-79
2023/01/24 01:38:40;;;;;;;16.97;8.43;;;;;;;-145.69;100.00;52713.72;5113406;28;20205;-78
2023/01/24 01:41:08;;;;;;;16.23;7.17;;;;;;;-145.69;100.00;52654.31;5113789;28;20198;-78
2023/01/24 01:43:35;;;;;;;16.67;7.67;;;;;;;-145.69;100.00;52678.09;5113690;28;20256;-78
2023/01/24 01:46:20;;;;;;;20.73;8.70;;;;;;;-145.69;100.00;52711.75;5113385;28;20320;-78
2023/01/24 01:48:52;;;;;;;20.57;7.60;;;;;;;-145.69;100.00;52701.84;5113538;28;20233;-79
2023/01/24 01:51:26;;;;;;;19.20;7.60;;;;;;;-145.69;100.00;52687.97;5113279;28;20446;-79
2023/01/24 01:53:59;;;;;;;19.30;7.70;;;;;;;-145.69;100.00;52687.97;5113621;28;20200;-79
2023/01/24 01:56:29;;;;;;;17.83;7.73;;;;;;;-145.69;100.00;52695.91;5113296;28;20197;-78
2023/01/24 01:59:00;;;;;;;16.27;7.50;;;;;;;-145.69;100.00;52713.72;5113513;28;20213;-79
2023/01/24 02:01:27;;;;;;;18.70;8.37;;;;;;;-145.69;100.00;52713.72;5113247;28;20296;-78
2023/01/24 02:04:03;;;;;;;21.77;8.53;;;;;;;-145.69;100.00;52701.84;5113072;28;20221;-78
2023/01/24 02:06:49;;;;;;;18.30;7.57;;;;;;;-145.69;100.00;52703.81;5113421;28;20208;-78
2023/01/24 02:09:22;;;;;;;21.40;8.53;;;;;;;-145.69;100.00;52693.94;5113243;28;20197;-78
2023/01/24 02:11:50;;;;;;;18.93;7.70;;;;;;;-145.69;100.00;52668.19;5113194;28;20197;-78
2023/01/24 02:17:07;;;;;;;18.07;7.80;;;;;;;-145.69;100.00;52670.16;5113248;28;20266;-78
2023/01/24 02:20:09;;;;;;;22.38;9.82;;;;;;;-145.69;100.00;52701.84;5112578;28;20436;-78
2023/01/24 02:22:46;;;;;;;16.23;7.60;;;;;;;-145.69;100.00;52705.81;5112936;28;20246;-78
2023/01/24 02:25:25;;;;;;;18.80;7.33;;;;;;;-145.69;100.00;52674.13;5113200;28;20204;-78
2023/01/24 02:27:54;;;;;;;14.10;6.73;;;;;;;-145.69;100.00;52717.69;5113219;28;20201;-78
2023/01/24 02:30:21;;;;;;;18.70;7.43;;;;;;;-145.69;100.00;52686.00;5113231;28;20549;-78
2023/01/24 02:32:49;;;;;;;18.73;7.80;;;;;;;-145.69;100.00;52701.84;5112990;28;20203;-78
2023/01/24 02:35:29;;;;;;;20.83;8.03;;;;;;;-145.69;100.00;52680.06;5113907;28;20666;-78
2023/01/24 02:38:03;;;;;;;19.60;7.77;;;;;;;-145.69;100.00;52676.09;5117186;28;20229;-78
2023/01/24 02:40:30;;;;;;;16.07;7.50;;;;;;;-145.69;100.00;52697.88;5117004;28;20202;-78
2023/01/24 02:43:03;;;;;;;17.97;7.63;;;;;;;-145.69;100.00;52701.84;5116869;28;20220;-78
2023/01/24 02:45:34;;;;;;;17.47;7.73;;;;;;;-145.69;100.00;52709.78;5116441;28;20225;-78
2023/01/24 02:48:03;;;;;;;17.97;6.77;;;;;;;-145.69;100.00;52686.00;5116989;28;20208;-78
2023/01/24 02:53:28;;;;;;;15.13;7.17;;;;;;;-145.69;100.00;52680.06;5116877;28;20652;-78
2023/01/24 02:53:29;;;;;;;15.67;7.33;;;;;;;-145.69;100.00;52705.81;5116834;28;20201;-78
2023/01/24 02:58:41;;;;;;;15.23;6.87;;;;;;;-145.69;100.00;52729.56;5116919;28;20205;-78
2023/01/24 03:01:07;;;;;;;16.00;7.43;;;;;;;-145.69;100.00;52697.88;5116656;28;20204;-78
2023/01/24 03:03:40;;;;;;;15.50;7.13;;;;;;;-145.69;100.00;52689.97;5116449;28;20221;-78
2023/01/24 03:06:06;;;;;;;14.37;6.70;;;;;;;-145.69;100.00;52680.06;5116538;28;20291;-78
2023/01/24 03:08:35;;;;;;;16.03;7.07;;;;;;;-145.69;100.00;52697.88;5116055;28;20196;-78
2023/01/24 03:11:02;;;;;;;16.37;7.10;;;;;;;-145.69;100.00;52701.84;5116432;28;20194;-77
2023/01/24 03:35:29;;;;;;;18.63;7.47;;;;;;;-145.69;100.00;52650.34;5116108;28;20203;-78
2023/01/24 03:40:43;;;;;;;18.77;7.30;;;;;;;-145.69;100.00;52691.94;5115834;28;20208;-78
2023/01/24 03:43:09;;;;;;;14.43;6.77;;;;;;;-145.69;100.00;52664.22;5115673;28;20667;-78
2023/01/24 03:45:40;;;;;;;14.07;6.93;;;;;;;-145.69;100.00;52709.78;5115065;28;20592;-78
2023/01/24 03:48:12;;;;;;;15.50;6.90;;;;;;;-145.69;100.00;52686.00;5115003;28;20201;-78
2023/01/24 03:53:26;;;;;;;14.47;6.37;;;;;;;-145.69;100.00;52678.09;5115786;28;20208;-79
2023/01/24 03:55:54;;;;;;;13.53;6.37;;;;;;;-145.69;100.00;52684.03;5115532;28;20211;-79
2023/01/24 03:58:21;;;;;;;12.67;6.30;;;;;;;-145.69;100.00;52705.81;5115562;28;20568;-79
2023/01/24 04:00:48;;;;;;;11.90;6.17;;;;;;;-145.69;100.00;52680.06;5115725;28;20209;-78
2023/01/24 04:03:16;;;;;;;11.47;5.73;;;;;;;-145.69;100.00;52713.72;5115328;28;20190;-79
2023/01/24 04:05:43;;;;;;;11.50;5.57;;;;;;;-145.69;100.00;52654.31;5115394;27;20659;-79
2023/01/24 04:08:09;;;;;;;11.23;5.80;;;;;;;-145.69;100.00;52693.94;5115382;28;20679;-79
2023/01/24 04:10:35;;;;;;;10.17;5.40;;;;;;;-145.69;100.00;52686.00;5115232;28;20201;-78
2023/01/24 04:13:02;;;;;;;10.50;5.10;;;;;;;-145.69;100.00;52670.16;5115246;28;20197;-79
2023/01/24 04:15:31;;;;;;;9.33;4.80;;;;;;;-145.69;100.00;52684.03;5115120;28;20201;-79
2023/01/24 04:17:58;;;;;;;9.37;4.40;;;;;;;-145.69;100.00;52711.75;5115177;28;20656;-79
2023/01/24 04:20:28;;;;;;;9.17;4.47;;;;;;;-145.69;100.00;52693.94;5115039;28;20652;-79
2023/01/24 04:22:55;;;;;;;8.10;4.57;;;;;;;-145.69;100.00;52699.88;5115197;28;20560;-79
2023/01/24 04:25:22;;;;;;;7.33;3.87;;;;;;;-145.69;100.00;52703.81;5114750;28;20229;-79
2023/01/24 04:27:48;;;;;;;7.97;4.20;;;;;;;-145.69;100.00;52678.09;5115294;28;20208;-79
2023/01/24 04:30:16;;;;;;;9.00;4.37;;;;;;;-145.69;100.00;52646.41;5115115;28;20209;-79
2023/01/24 04:32:43;;;;;;;8.13;4.17;;;;;;;-145.69;100.00;52682.03;5115150;28;20236;-79
2023/01/24 04:35:15;;;;;;;8.80;4.30;;;;;;;-145.69;100.00;52687.97;5114998;28;20552;-78
2023/01/24 04:37:43;;;;;;;7.57;3.53;;;;;;;-145.69;100.00;52684.03;5114871;28;20201;-78
2023/01/24 04:40:11;;;;;;;7.83;4.13;;;;;;;-145.69;100.00;52697.88;5114758;28;20197;-79
2023/01/24 04:42:38;;;;;;;7.97;3.70;;;;;;;-145.69;100.00;52707.78;5114626;28;20659;-79
2023/01/24 04:45:05;;;;;;;9.43;4.07;;;;;;;-145.69;100.00;52678.09;5114267;28;20225;-79
2023/01/24 04:47:32;;;;;;;7.17;3.97;;;;;;;-145.69;100.00;52682.03;5114471;28;20201;-79
2023/01/24 04:49:58;;;;;;;7.77;3.90;;;;;;;-145.69;100.00;52674.13;5114607;28;20209;-79
2023/01/24 04:52:25;;;;;;;7.37;3.70;;;;;;;-145.69;100.00;52678.09;5114498;28;20205;-78
2023/01/24 04:54:53;;;;;;;7.93;3.83;;;;;;;-145.69;100.00;52674.13;5114387;28;20192;-78
2023/01/24 04:57:19;;;;;;;9.40;3.80;;;;;;;-145.69;100.00;52689.97;5114551;28;20193;-79
2023/01/24 04:59:46;;;;;;;9.60;3.73;;;;;;;-145.69;100.00;52701.84;5114114;28;20666;-78
2023/01/24 05:02:12;;;;;;;7.00;3.80;;;;;;;-145.69;100.00;52699.88;5114346;28;20201;-79
2023/01/24 05:04:39;;;;;;;6.93;3.70;;;;;;;-145.69;100.00;52699.88;5114178;28;20221;-79
2023/01/24 05:07:06;;;;;;;7.60;3.90;;;;;;;-145.69;100.00;52693.94;5114138;28;20258;-78
2023/01/24 05:09:32;;;;;;;6.17;3.50;;;;;;;-145.69;100.00;52678.09;5114383;28;20545;-79
2023/01/24 05:12:00;;;;;;;5.13;3.27;;;;;;;-145.69;100.00;52686.00;5114305;28;20197;-79
2023/01/24 05:14:26;;;;;;;6.77;3.47;;;;;;;-145.69;100.00;52676.09;5113952;28;20197;-79
2023/01/24 05:16:53;;;;;;;6.20;3.57;;;;;;;-145.69;100.00;52684.03;5114099;28;20198;-79
2023/01/24 05:19:19;;;;;;;6.63;3.33;;;;;;;-145.69;100.00;52668.19;5113903;28;20293;-77
2023/01/24 05:21:46;;;;;;;7.43;3.53;;;;;;;-145.69;100.00;52662.22;5113814;28;20660;-79
2023/01/24 05:24:12;;;;;;;7.37;4.17;;;;;;;-145.69;100.00;52684.03;5113471;28;20221;-79
2023/01/24 05:26:39;;;;;;;10.40;4.17;;;;;;;-145.69;100.00;52674.13;5114046;28;20197;-79
2023/01/24 05:29:07;;;;;;;9.23;4.00;;;;;;;-145.69;100.00;52725.63;5113788;28;20652;-78
2023/01/24 05:31:33;;;;;;;6.63;3.37;;;;;;;-145.69;100.00;52670.16;5101439;28;20206;-78
2023/01/24 05:34:00;;;;;;;7.72;4.47;;;;;;;-145.69;100.00;52682.03;5092422;28;20436;-79
2023/01/24 05:36:26;;;;;;;8.43;3.97;;;;;;;-145.69;100.00;52670.16;5093494;28;20284;-79
2023/01/24 05:38:52;;;;;;;8.87;3.77;;;;;;;-145.69;100.00;52680.06;5113045;28;20197;-78
2023/01/24 05:41:21;;;;;;;10.37;3.80;;;;;;;-145.69;100.00;52691.94;5113465;28;20205;-78
2023/01/24 05:43:48;;;;;;;8.53;4.00;;;;;;;-145.69;100.00;52674.13;5113202;28;20695;-78
2023/01/24 05:46:17;;;;;;;8.10;3.87;;;;;;;-145.69;100.00;52686.00;5113435;28;20229;-78
2023/01/24 05:48:46;;;;;;;8.07;3.50;;;;;;;-145.69;100.00;52674.13;5113504;28;20571;-78
2023/01/24 05:51:14;;;;;;;8.67;3.67;;;;;;;-145.69;100.00;52662.22;5113885;28;20201;-78
2023/01/24 05:53:42;;;;;;;8.30;4.30;;;;;;;-145.69;100.00;52670.16;5113469;28;20726;-78
2023/01/24 05:56:13;;;;;;;8.73;4.23;;;;;;;-145.69;100.00;52729.56;5113413;28;20204;-78
2023/01/24 05:58:40;;;;;;;8.47;4.00;;;;;;;-145.69;100.00;52678.09;5113475;28;20229;-78
2023/01/24 06:01:08;;;;;;;7.27;3.73;;;;;;;-145.69;100.00;52695.91;5113231;28;20242;-78
2023/01/24 06:03:37;;;;;;;8.13;3.83;;;;;;;-145.69;100.00;52693.94;5113578;28;20201;-77
2023/01/24 06:06:04;;;;;;;7.87;4.00;;;;;;;-145.69;100.00;52731.56;5113455;28;20237;-79
2023/01/24 06:08:31;;;;;;;7.77;3.83;;;;;;;-145.69;100.00;52695.91;5113371;28;20208;-79
2023/01/24 06:11:02;;;;;;;9.05;4.97;;;;;;;-145.69;100.00;52674.13;5112333;28;20442;-78
2023/01/24 06:13:29;;;;;;;13.13;4.37;;;;;;;-145.69;100.00;52717.69;5112920;28;20193;-79
2023/01/24 06:16:01;;;;;;;9.43;4.43;;;;;;;-145.69;100.00;52670.16;5113201;28;20292;-78
2023/01/24 06:18:27;;;;;;;7.53;4.10;;;;;;;-145.69;100.00;52693.94;5113158;28;20197;-78
2023/01/24 06:20:56;;;;;;;9.37;4.70;;;;;;;-145.69;100.00;52684.03;5113330;28;20205;-79
2023/01/24 06:23:25;;;;;;;7.20;4.07;;;;;;;-145.69;100.00;52687.97;5113293;28;20197;-78
2023/01/24 06:25:52;;;;;;;7.70;4.00;;;;;;;-145.69;100.00;52674.13;5112876;28;20220;-78
2023/01/24 06:28:19;;;;;;;7.13;3.87;;;;;;;-145.69;100.00;52682.03;5112998;28;20209;-78
2023/01/24 06:30:51;;;;;;;8.63;4.17;;;;;;;-145.69;100.00;52697.88;5113206;28;20201;-78
2023/01/24 06:33:26;;;;;;;6.93;4.03;;;;;;;-145.69;100.00;52678.09;5112928;28;20652;-79
2023/01/24 06:36:11;;;;;;;7.43;4.00;;;;;;;-145.69;100.00;52689.97;5113001;28;20218;-78
2023/01/24 06:38:37;;;;;;;8.90;4.10;;;;;;;-145.69;100.00;52717.69;5113026;28;20201;-78
2023/01/24 06:41:16;;;;;;;10.10;4.27;;;;;;;-145.69;100.00;52709.78;5113186;28;20564;-79
2023/01/24 06:43:43;;;;;;;7.13;3.57;;;;;;;-145.69;100.00;52697.88;5112814;28;20228;-79
2023/01/24 06:46:10;;;;;;;8.80;4.00;;;;;;;-145.69;100.00;52670.16;5112690;28;20237;-79
2023/01/24 06:48:37;;;;;;;9.83;4.33;;;;;;;-145.69;100.00;52678.09;5113004;28;20208;-79
2023/01/24 06:51:05;;;;;;;6.67;3.63;;;;;;;-145.69;100.00;52686.00;5112773;28;20201;-79
2023/01/24 06:53:32;;;;;;;7.60;4.20;;;;;;;-145.69;100.00;52682.03;5113012;28;20197;-79
2023/01/24 06:55:59;;;;;;;7.63;3.90;;;;;;;-145.69;100.00;52686.00;5112851;28;20194;-79
2023/01/24 06:58:25;;;;;;;9.13;4.27;;;;;;;-145.69;100.00;52705.81;5112926;28;20201;-79
2023/01/24 07:00:52;;;;;;;7.40;4.07;;;;;;;-145.69;100.00;52699.88;5112911;28;20198;-79
2023/01/24 07:03:19;;;;;;;7.90;4.33;;;;;;;-145.69;100.00;52715.72;5112592;28;20202;-79
2023/01/24 07:05:45;;;;;;;8.87;4.23;;;;;;;-145.69;100.00;52686.00;5112624;28;20229;-79
2023/01/24 07:08:13;;;;;;;9.23;4.37;;;;;;;-145.69;100.00;52686.00;5112698;28;20198;-79
2023/01/24 07:10:40;;;;;;;7.67;3.77;;;;;;;-145.69;100.00;52709.78;5112949;28;20670;-79
2023/01/24 07:13:06;;;;;;;10.33;4.33;;;;;;;-145.69;100.00;52691.94;5112551;28;20194;-79
2023/01/24 07:15:33;;;;;;;8.30;4.40;;;;;;;-145.69;100.00;52668.19;5112616;28;20205;-79
2023/01/24 07:18:05;;;;;;;7.63;4.23;;;;;;;-145.69;100.00;52674.13;5112501;28;20198;-79
2023/01/24 07:20:32;;;;;;;10.33;4.87;;;;;;;-145.69;100.00;52686.00;5112278;28;20194;-78
2023/01/24 07:22:59;;;;;;;8.87;4.70;;;;;;;-145.69;100.00;52693.94;5114886;28;20209;-79
2023/01/24 07:25:27;;;;;;;9.17;4.53;;;;;;;-145.69;100.00;52678.09;5116310;28;20225;-78
2023/01/24 07:27:54;;;;;;;10.87;5.23;;;;;;;-145.69;100.00;52674.13;5116306;28;20201;-79
2023/01/24 07:30:21;;;;;;;10.20;4.63;;;;;;;-145.69;100.00;52680.06;5116095;28;20201;-79
2023/01/24 07:32:48;;;;;;;9.27;4.73;;;;;;;-145.69;100.00;52687.97;5098173;28;20595;-79
2023/01/24 07:35:15;;;;;;;12.40;5.57;;;;;;;-145.69;100.00;52703.81;5095828;28;20205;-79
2023/01/24 07:37:42;;;;;;;8.60;4.40;;;;;;;-145.69;100.00;52693.94;5095658;28;20202;-78
2023/01/24 07:40:09;;;;;;;9.33;4.90;;;;;;;-145.69;100.00;52693.94;5095528;28;20202;-79
2023/01/24 07:42:37;;;;;;;8.70;4.53;;;;;;;-145.69;100.00;52693.94;5101806;28;20186;-79
2023/01/24 07:45:04;;;;;;;9.83;4.83;;;;;;;-145.69;100.00;52693.94;5115139;28;20232;-79
2023/01/24 07:47:31;;;;;;;10.80;5.00;;;;;;;-145.69;100.00;52717.69;5115710;28;20209;-79
2023/01/24 07:49:58;;;;;;;9.57;4.83;;;;;;;-145.69;100.00;52693.94;5115569;28;20200;-78
2023/01/24 07:52:24;;;;;;;9.63;4.80;;;;;;;-145.69;100.00;52699.88;5115738;28;20232;-79
2023/01/24 07:54:51;;;;;;;9.63;5.07;;;;;;;-145.69;100.00;52719.66;5115544;28;20201;-79
2023/01/24 07:57:17;;;;;;;10.23;5.07;;;;;;;-145.69;100.00;52695.91;5115682;28;20648;-79
2023/01/24 07:59:45;;;;;;;10.07;4.90;;;;;;;-145.69;100.00;52691.94;5115654;28;20201;-79
2023/01/24 08:02:12;;;;;;;11.13;5.00;;;;;;;-145.69;100.00;52684.03;5115529;28;20209;-79
2023/01/24 08:04:39;;;;;;;11.23;5.30;;;;;;;-145.69;100.00;52703.81;5115630;28;20197;-79
2023/01/24 08:07:17;;;;;;;11.35;5.55;;;;;;;-145.69;100.00;52691.94;5115250;28;20793;-78
2023/01/24 08:09:44;;;;;;;8.80;4.43;;;;;;;-145.69;100.00;52664.22;5115507;28;20629;-78
2023/01/24 08:12:11;;;;;;;10.70;5.20;;;;;;;-145.69;100.00;52660.25;5115100;28;20292;-78
2023/01/24 08:14:37;;;;;;;9.07;5.23;;;;;;;-145.69;100.00;52674.13;5114996;28;20201;-78
2023/01/24 08:17:05;;;;;;;10.37;5.40;;;;;;;-145.69;100.00;52687.97;5115429;28;20206;-78
2023/01/24 08:19:32;;;;;;;8.77;4.77;;;;;;;-145.69;100.00;52684.03;5115411;28;20205;-78
2023/01/24 08:21:59;;;;;;;12.97;5.40;;;;;;;-145.69;100.00;52689.97;5115260;28;20201;-78
2023/01/24 08:24:25;;;;;;;10.73;5.30;;;;;;;-145.69;100.00;52678.09;5115158;28;20217;-78
2023/01/24 08:26:52;;;;;;;10.67;5.20;;;;;;;-145.69;100.00;52705.81;5114960;28;20225;-78
2023/01/24 08:29:18;;;;;;;11.37;5.00;;;;;;;-145.69;100.00;52674.13;5114779;28;20200;-79
2023/01/24 08:31:45;;;;;;;10.23;5.43;;;;;;;-145.69;100.00;52662.22;5114615;28;20204;-78
2023/01/24 08:34:13;;;;;;;10.07;5.37;;;;;;;-145.69;100.00;52676.09;5114596;28;20202;-79
2023/01/24 08:36:39;;;;;;;10.63;5.10;;;;;;;-145.69;100.00;52717.69;5114872;28;20200;-78
2023/01/24 08:39:06;;;;;;;11.23;5.23;;;;;;;-145.69;100.00;52670.16;5114712;28;20197;-78
2023/01/24 08:41:32;;;;;;;10.40;5.03;;;;;;;-145.69;100.00;52715.72;5114696;28;20201;-78
2023/01/24 08:43:59;;;;;;;9.10;4.90;;;;;;;-145.69;100.00;52697.88;5114346;28;20231;-78
2023/01/24 08:46:26;;;;;;;11.63;5.00;;;;;;;-145.69;100.00;52654.31;5114566;28;20224;-79
2023/01/24 08:48:53;;;;;;;10.80;5.30;;;;;;;-145.69;100.00;52715.72;5114771;28;20208;-78
2023/01/24 08:51:20;;;;;;;11.00;5.17;;;;;;;-145.69;100.00;52670.16;5114280;28;20194;-78
2023/01/24 08:53:47;;;;;;;10.17;5.20;;;;;;;-145.69;100.00;52674.13;5114300;28;20664;-78
2023/01/24 08:56:13;;;;;;;8.17;4.40;;;;;;;-145.69;100.00;52689.97;5114283;28;20201;-78
2023/01/24 08:58:40;;;;;;;8.90;4.50;;;;;;;-145.69;100.00;52674.13;5113879;28;20189;-78
2023/01/24 09:01:07;;;;;;;11.10;4.40;;;;;;;-145.69;100.00;52686.00;5113262;28;20552;-78
2023/01/24 09:03:33;;;;;;;9.43;4.87;;;;;;;-145.69;100.00;52689.97;5114500;28;20209;-78
2023/01/24 09:06:00;;;;;;;9.20;4.70;;;;;;;-145.69;100.00;52682.03;5114277;28;20228;-78
2023/01/24 09:08:28;;;;;;;7.37;4.07;;;;;;;-145.69;100.00;52697.88;5114315;28;20197;-80
2023/01/24 09:10:54;;;;;;;8.53;4.10;;;;;;;-145.69;100.00;52666.19;5113827;28;20670;-77
2023/01/24 09:13:21;;;;;;;6.50;3.87;;;;;;;-145.69;100.00;52652.34;5113338;28;20568;-77
2023/01/24 09:15:47;;;;;;;7.93;3.97;;;;;;;-145.69;100.00;52682.03;5113962;28;20194;-77
2023/01/24 09:18:14;;;;;;;7.70;3.90;;;;;;;-145.69;100.00;52674.13;5114205;28;20198;-77
2023/01/24 09:20:40;;;;;;;10.17;4.37;;;;;;;-145.69;100.00;52650.34;5113821;28;20197;-77
2023/01/24 09:23:09;;;;;;;7.63;4.00;;;;;;;-145.69;100.00;52691.94;5113955;28;20200;-77
2023/01/24 09:25:36;;;;;;;8.30;3.53;;;;;;;-145.69;100.00;52648.38;5114025;28;20256;-79
2023/01/24 09:28:03;;;;;;;9.83;4.00;;;;;;;-145.69;100.00;52658.28;5110432;28;20201;-77
2023/01/24 09:30:29;;;;;;;7.07;4.23;;;;;;;-145.69;100.00;52684.03;5093327;28;20653;-77
2023/01/24 09:32:56;;;;;;;7.33;3.80;;;;;;;-145.69;100.00;52670.16;5093408;28;20675;-77
2023/01/24 09:35:22;;;;;;;8.67;4.57;;;;;;;-145.69;100.00;52650.34;5093463;28;20206;-77
2023/01/24 09:37:52;;;;;;;7.53;3.77;;;;;;;-145.69;100.00;52642.44;5094624;28;20201;-78
2023/01/24 09:40:22;;;;;;;8.90;4.33;;;;;;;-145.69;100.00;52648.38;5113086;28;20193;-78
2023/01/24 09:43:01;;;;;;;7.17;3.83;;;;;;;-145.69;100.00;52662.22;5112867;28;20197;-78
2023/01/24 09:45:31;;;;;;;7.57;3.90;;;;;;;-145.69;100.00;52686.00;5111223;28;20221;-76
2023/01/24 09:48:01;;;;;;;7.33;3.80;;;;;;;-145.69;100.00;52644.41;5112793;28;20622;-76
2023/01/24 09:50:34;;;;;;;8.30;4.13;;;;;;;-145.69;100.00;52684.03;5113285;28;20201;-75
2023/01/24 09:53:00;;;;;;;7.77;4.10;;;;;;;-145.69;100.00;52668.19;5113449;28;20201;-76
2023/01/24 09:55:33;;;;;;;7.50;4.00;;;;;;;-145.69;100.00;52670.16;5113105;28;20216;-77
2023/01/24 09:58:06;;;;;;;8.27;4.27;;;;;;;-145.69;100.00;52678.09;5113359;28;20212;-77
2023/01/24 10:00:36;;;;;;;8.83;3.77;;;;;;;-145.69;100.00;52670.16;5113312;28;20288;-77
2023/01/24 10:03:03;;;;;;;8.67;4.17;;;;;;;-145.69;100.00;52660.25;5113297;28;20197;-77
2023/01/24 10:05:33;;;;;;;9.40;4.03;;;;;;;-145.69;100.00;52686.00;5113108;28;20497;-77
2023/01/24 10:08:16;;;;;;;8.13;4.10;;;;;;;-145.69;100.00;52650.34;5113354;28;20201;-77
2023/01/24 10:10:51;;;;;;;9.20;4.07;;;;;;;-145.69;100.00;52691.94;5113631;28;20194;-76
2023/01/24 10:13:50;;;;;;;9.97;4.57;;;;;;;-145.69;100.00;52664.22;5112651;28;20189;-76
2023/01/24 10:16:43;;;;;;;10.67;4.20;;;;;;;-145.69;100.00;52674.13;5112527;28;20193;-76
2023/01/24 10:19:25;;;;;;;8.33;4.30;;;;;;;-145.69;100.00;52686.00;5113068;28;20568;-76
2023/01/24 10:22:09;;;;;;;10.90;5.10;;;;;;;-145.69;100.00;52686.00;5113284;28;20204;-76
2023/01/24 10:24:43;;;;;;;10.97;4.43;;;;;;;-145.69;100.00;52642.44;5113094;28;20212;-76
2023/01/24 10:27:17;;;;;;;9.07;4.43;;;;;;;-145.69;100.00;52666.19;5112990;28;20220;-76
2023/01/24 10:29:57;;;;;;;10.53;5.10;;;;;;;-145.69;100.00;52684.03;5112973;28;20201;-76
2023/01/24 10:32:31;;;;;;;8.93;4.57;;;;;;;-145.69;100.00;52687.97;5113024;28;20201;-77
2023/01/24 10:35:04;;;;;;;7.97;4.53;;;;;;;-145.69;100.00;52662.22;5112785;28;20439;-77
2023/01/24 10:37:34;;;;;;;9.67;4.57;;;;;;;-145.69;100.00;52674.13;5112993;28;20209;-77
2023/01/24 10:40:02;;;;;;;7.63;4.50;;;;;;;-145.69;100.00;52634.50;5112629;28;20537;-77
2023/01/24 10:42:31;;;;;;;7.93;4.40;;;;;;;-145.69;100.00;52682.03;5111571;28;20292;-77
2023/01/24 10:45:01;;;;;;;9.67;5.10;;;;;;;-145.69;100.00;52674.13;5112349;28;20232;-77
2023/01/24 10:47:45;;;;;;;8.70;4.23;;;;;;;-145.69;100.00;52693.94;5112871;28;20225;-77
2023/01/24 10:50:15;;;;;;;8.93;4.23;;;;;;;-145.69;100.00;52660.25;5111236;28;20197;-77
2023/01/24 10:52:42;;;;;;;7.50;4.23;;;;;;;-145.69;100.00;52674.13;5112653;28;20570;-76
2023/01/24 10:55:25;;;;;;;8.47;4.27;;;;;;;-145.69;100.00;52658.28;5112227;28;20210;-77
2023/01/24 10:57:53;;;;;;;9.10;4.57;;;;;;;-145.69;100.00;52687.97;5116610;28;20246;-77
2023/01/24 11:00:34;;;;;;;8.80;4.50;;;;;;;-145.69;100.00;52658.28;5116793;28;20217;-77
2023/01/24 11:03:02;;;;;;;10.73;4.47;;;;;;;-145.69;100.00;52672.13;5116128;28;20193;-77
2023/01/24 11:05:43;;;;;;;9.60;4.43;;;;;;;-145.69;100.00;52672.13;5116441;28;20232;-79
2023/01/24 11:08:21;;;;;;;9.53;4.83;;;;;;;-145.69;100.00;52697.88;5116516;28;20204;-77
2023/01/24 11:10:53;;;;;;;9.47;4.73;;;;;;;-145.69;100.00;52701.84;5116442;28;20204;-76
2023/01/24 11:13:27;;;;;;;10.20;4.97;;;;;;;-145.69;100.00;52695.91;5115525;28;20201;-76
2023/01/24 11:16:02;;;;;;;9.37;4.53;;;;;;;-145.69;100.00;52691.94;5115701;28;20560;-77
2023/01/24 11:18:29;;;;;;;7.13;3.90;;;;;;;-145.69;100.00;52695.91;5116260;28;20246;-77
2023/01/24 11:21:08;;;;;;;9.13;4.80;;;;;;;-145.69;100.00;52658.28;5116384;28;20228;-78
2023/01/24 11:23:36;;;;;;;9.07;4.87;;;;;;;-145.69;100.00;52686.00;5116455;28;20247;-78
2023/01/24 11:26:05;;;;;;;7.83;4.40;;;;;;;-145.69;100.00;52666.19;5116013;28;20250;-77
2023/01/24 11:28:33;;;;;;;9.00;4.27;;;;;;;-145.69;100.00;52666.19;5116318;28;20205;-77
2023/01/24 11:31:04;;;;;;;9.43;4.40;;;;;;;-145.69;100.00;52632.53;5115886;28;20564;-79
2023/01/24 11:33:45;;;;;;;9.33;4.33;;;;;;;-145.69;100.00;52644.41;5116151;28;20201;-78
2023/01/24 11:36:28;;;;;;;10.03;4.73;;;;;;;-145.69;100.00;52642.44;5110411;28;20209;-78
2023/01/24 11:38:57;;;;;;;8.10;4.13;;;;;;;-145.69;100.00;52664.22;5102119;28;20200;-80
2023/01/24 11:41:30;;;;;;;10.00;4.77;;;;;;;-145.69;100.00;52654.31;5116184;28;20567;-80
2023/01/24 11:44:36;;;;;;;12.23;5.23;;;;;;;-145.69;100.00;52634.50;5116096;28;20592;-80
2023/01/24 11:47:10;;;;;;;9.30;4.47;;;;;;;-145.69;100.00;52672.13;5115442;28;20228;-80